sensor_id;sensor_type;location;lat;lon;timestamp;temperature;humidity
23783;DHT22;12071;50.850;4.446;2022-12-26T00:00:57;11.60;77.30
23783;DHT22;12071;50.850;4.446;2022-12-26T00:03:23;11.50;74.30
23783;DHT22;12071;50.850;4.446;2022-12-26T00:05:48;11.40;75.50
23783;DHT22;12071;50.850;4.446;2022-12-26T00:08:14;11.30;77.70
23783;DHT22;12071;50.850;4.446;2022-12-26T00:10:39;11.30;80.30
23783;DHT22;12071;50.850;4.446;2022-12-26T00:13:05;11.40;82.10
23783;DHT22;12071;50.850;4.446;2022-12-26T00:15:31;11.40;79.80
23783;DHT22;12071;50.850;4.446;2022-12-26T00:17:56;11.50;80.70
23783;DHT22;12071;50.850;4.446;2022-12-26T00:20:22;11.40;77.70
23783;DHT22;12071;50.850;4.446;2022-12-26T00:22:48;11.30;79.70
23783;DHT22;12071;50.850;4.446;2022-12-26T00:25:13;11.40;79.60
23783;DHT22;12071;50.850;4.446;2022-12-26T00:27:39;11.40;77.60
23783;DHT22;12071;50.850;4.446;2022-12-26T00:30:05;11.30;76.90
23783;DHT22;12071;50.850;4.446;2022-12-26T00:32:31;11.20;78.00
23783;DHT22;12071;50.850;4.446;2022-12-26T00:34:56;11.20;80.40
23783;DHT22;12071;50.850;4.446;2022-12-26T00:37:22;11.20;83.40
23783;DHT22;12071;50.850;4.446;2022-12-26T00:39:47;11.20;81.80
23783;DHT22;12071;50.850;4.446;2022-12-26T00:42:13;11.20;82.80
23783;DHT22;12071;50.850;4.446;2022-12-26T00:44:38;11.20;82.20
23783;DHT22;12071;50.850;4.446;2022-12-26T00:47:04;11.10;83.90
23783;DHT22;12071;50.850;4.446;2022-12-26T00:49:30;11.30;84.70
23783;DHT22;12071;50.850;4.446;2022-12-26T00:51:55;11.20;83.60
23783;DHT22;12071;50.850;4.446;2022-12-26T00:54:21;11.20;82.70
23783;DHT22;12071;50.850;4.446;2022-12-26T00:56:46;11.20;82.30
23783;DHT22;12071;50.850;4.446;2022-12-26T00:59:12;11.20;82.90
23783;DHT22;12071;50.850;4.446;2022-12-26T01:01:38;11.20;82.80
23783;DHT22;12071;50.850;4.446;2022-12-26T01:04:03;11.10;83.20
23783;DHT22;12071;50.850;4.446;2022-12-26T01:06:29;11.20;83.80
23783;DHT22;12071;50.850;4.446;2022-12-26T01:08:55;11.30;85.10
23783;DHT22;12071;50.850;4.446;2022-12-26T01:11:20;11.20;81.10
23783;DHT22;12071;50.850;4.446;2022-12-26T01:14:13;11.30;79.60
23783;DHT22;12071;50.850;4.446;2022-12-26T01:16:40;11.30;74.80
23783;DHT22;12071;50.850;4.446;2022-12-26T01:19:06;11.20;74.70
23783;DHT22;12071;50.850;4.446;2022-12-26T01:21:32;11.20;76.00
23783;DHT22;12071;50.850;4.446;2022-12-26T01:23:58;11.20;75.40
23783;DHT22;12071;50.850;4.446;2022-12-26T01:26:23;11.10;75.50
23783;DHT22;12071;50.850;4.446;2022-12-26T01:28:51;11.10;77.80
23783;DHT22;12071;50.850;4.446;2022-12-26T01:31:17;11.20;79.70
23783;DHT22;12071;50.850;4.446;2022-12-26T01:33:43;11.30;78.80
23783;DHT22;12071;50.850;4.446;2022-12-26T01:36:09;11.30;72.10
23783;DHT22;12071;50.850;4.446;2022-12-26T01:38:34;11.40;70.70
23783;DHT22;12071;50.850;4.446;2022-12-26T01:41:00;11.20;64.90
23783;DHT22;12071;50.850;4.446;2022-12-26T01:43:59;11.30;68.30
23783;DHT22;12071;50.850;4.446;2022-12-26T01:48:59;11.20;64.80
23783;DHT22;12071;50.850;4.446;2022-12-26T01:51:28;11.10;67.10
23783;DHT22;12071;50.850;4.446;2022-12-26T01:53:57;11.10;72.10
23783;DHT22;12071;50.850;4.446;2022-12-26T01:56:29;11.20;72.10
23783;DHT22;12071;50.850;4.446;2022-12-26T01:59:10;11.20;67.40
23783;DHT22;12071;50.850;4.446;2022-12-26T02:01:39;11.20;66.80
23783;DHT22;12071;50.850;4.446;2022-12-26T02:04:07;11.10;64.20
23783;DHT22;12071;50.850;4.446;2022-12-26T02:06:52;11.00;69.40
23783;DHT22;12071;50.850;4.446;2022-12-26T02:09:19;11.10;67.20
23783;DHT22;12071;50.850;4.446;2022-12-26T02:11:51;11.10;66.90
23783;DHT22;12071;50.850;4.446;2022-12-26T02:14:19;11.00;68.80
23783;DHT22;12071;50.850;4.446;2022-12-26T02:16:44;11.00;70.50
23783;DHT22;12071;50.850;4.446;2022-12-26T02:22:30;11.10;62.80
23783;DHT22;12071;50.850;4.446;2022-12-26T02:33:16;10.90;62.90
23783;DHT22;12071;50.850;4.446;2022-12-26T02:35:59;10.90;58.90
23783;DHT22;12071;50.850;4.446;2022-12-26T02:44:18;10.80;65.00
23783;DHT22;12071;50.850;4.446;2022-12-26T02:50:38;10.80;64.50
23783;DHT22;12071;50.850;4.446;2022-12-26T02:55:46;10.80;62.40
23783;DHT22;12071;50.850;4.446;2022-12-26T02:58:40;10.80;63.90
23783;DHT22;12071;50.850;4.446;2022-12-26T03:01:31;10.80;62.40
23783;DHT22;12071;50.850;4.446;2022-12-26T03:04:19;10.70;57.90
23783;DHT22;12071;50.850;4.446;2022-12-26T03:07:15;10.70;57.50
23783;DHT22;12071;50.850;4.446;2022-12-26T03:10:06;10.60;58.90
23783;DHT22;12071;50.850;4.446;2022-12-26T03:13:01;10.70;57.50
23783;DHT22;12071;50.850;4.446;2022-12-26T03:15:50;10.80;53.60
23783;DHT22;12071;50.850;4.446;2022-12-26T03:18:39;10.80;51.70
23783;DHT22;12071;50.850;4.446;2022-12-26T03:21:06;10.80;52.90
23783;DHT22;12071;50.850;4.446;2022-12-26T03:23:33;10.80;55.70
23783;DHT22;12071;50.850;4.446;2022-12-26T03:26:09;10.80;56.90
23783;DHT22;12071;50.850;4.446;2022-12-26T03:28:56;10.80;58.70
23783;DHT22;12071;50.850;4.446;2022-12-26T03:31:42;10.70;62.50
23783;DHT22;12071;50.850;4.446;2022-12-26T03:34:08;10.90;66.50
23783;DHT22;12071;50.850;4.446;2022-12-26T03:48:54;10.80;67.40
23783;DHT22;12071;50.850;4.446;2022-12-26T03:52:01;10.80;65.40
23783;DHT22;12071;50.850;4.446;2022-12-26T03:54:56;10.70;65.70
23783;DHT22;12071;50.850;4.446;2022-12-26T03:58:07;10.80;61.70
23783;DHT22;12071;50.850;4.446;2022-12-26T04:00:54;10.90;55.20
23783;DHT22;12071;50.850;4.446;2022-12-26T04:03:41;10.90;57.90
23783;DHT22;12071;50.850;4.446;2022-12-26T04:06:32;10.80;57.10
23783;DHT22;12071;50.850;4.446;2022-12-26T04:09:33;10.90;58.80
23783;DHT22;12071;50.850;4.446;2022-12-26T04:12:21;10.90;56.60
23783;DHT22;12071;50.850;4.446;2022-12-26T04:15:36;10.90;54.20
23783;DHT22;12071;50.850;4.446;2022-12-26T04:18:26;10.90;53.80
23783;DHT22;12071;50.850;4.446;2022-12-26T04:21:28;10.80;53.50
23783;DHT22;12071;50.850;4.446;2022-12-26T04:24:25;10.90;56.90
23783;DHT22;12071;50.850;4.446;2022-12-26T04:27:12;11.00;57.00
23783;DHT22;12071;50.850;4.446;2022-12-26T04:29:58;10.90;55.90
23783;DHT22;12071;50.850;4.446;2022-12-26T04:32:47;10.90;56.70
23783;DHT22;12071;50.850;4.446;2022-12-26T04:35:48;11.00;53.20
23783;DHT22;12071;50.850;4.446;2022-12-26T04:38:39;10.80;50.90
23783;DHT22;12071;50.850;4.446;2022-12-26T04:41:28;10.90;53.90
23783;DHT22;12071;50.850;4.446;2022-12-26T04:44:13;10.80;51.70
23783;DHT22;12071;50.850;4.446;2022-12-26T04:46:45;10.80;53.00
23783;DHT22;12071;50.850;4.446;2022-12-26T04:49:13;10.80;54.20
23783;DHT22;12071;50.850;4.446;2022-12-26T04:51:59;10.80;53.60
23783;DHT22;12071;50.850;4.446;2022-12-26T04:54:26;10.90;56.30
23783;DHT22;12071;50.850;4.446;2022-12-26T04:56:51;10.80;53.40
23783;DHT22;12071;50.850;4.446;2022-12-26T04:59:17;10.80;52.70
23783;DHT22;12071;50.850;4.446;2022-12-26T05:01:43;11.00;47.90
23783;DHT22;12071;50.850;4.446;2022-12-26T05:04:27;10.90;42.70
23783;DHT22;12071;50.850;4.446;2022-12-26T05:07:15;11.00;41.00
23783;DHT22;12071;50.850;4.446;2022-12-26T05:10:01;11.00;37.20
23783;DHT22;12071;50.850;4.446;2022-12-26T05:12:26;10.90;35.80
23783;DHT22;12071;50.850;4.446;2022-12-26T05:14:53;10.90;36.60
23783;DHT22;12071;50.850;4.446;2022-12-26T05:17:18;10.90;37.70
23783;DHT22;12071;50.850;4.446;2022-12-26T05:20:03;10.90;34.60
23783;DHT22;12071;50.850;4.446;2022-12-26T05:22:48;10.90;37.70
23783;DHT22;12071;50.850;4.446;2022-12-26T05:25:34;11.00;33.40
23783;DHT22;12071;50.850;4.446;2022-12-26T05:28:21;10.90;31.50
23783;DHT22;12071;50.850;4.446;2022-12-26T05:31:05;11.00;32.20
23783;DHT22;12071;50.850;4.446;2022-12-26T05:33:31;10.80;33.10
23783;DHT22;12071;50.850;4.446;2022-12-26T05:36:16;11.00;38.80
23783;DHT22;12071;50.850;4.446;2022-12-26T05:38:43;11.00;34.60
23783;DHT22;12071;50.850;4.446;2022-12-26T05:41:09;11.20;27.40
23783;DHT22;12071;50.850;4.446;2022-12-26T05:43:34;11.10;24.10
23783;DHT22;12071;50.850;4.446;2022-12-26T05:46:00;11.00;26.40
23783;DHT22;12071;50.850;4.446;2022-12-26T05:48:25;11.00;28.70
23783;DHT22;12071;50.850;4.446;2022-12-26T05:50:51;11.00;28.70
23783;DHT22;12071;50.850;4.446;2022-12-26T05:53:17;11.00;31.30
23783;DHT22;12071;50.850;4.446;2022-12-26T05:55:42;11.00;32.20
23783;DHT22;12071;50.850;4.446;2022-12-26T05:58:08;11.00;34.70
23783;DHT22;12071;50.850;4.446;2022-12-26T06:00:33;11.00;35.10
23783;DHT22;12071;50.850;4.446;2022-12-26T06:02:59;11.00;31.00
23783;DHT22;12071;50.850;4.446;2022-12-26T06:05:26;11.00;31.30
23783;DHT22;12071;50.850;4.446;2022-12-26T06:07:52;11.00;31.20
23783;DHT22;12071;50.850;4.446;2022-12-26T06:10:18;10.90;32.20
23783;DHT22;12071;50.850;4.446;2022-12-26T06:12:44;10.90;33.70
23783;DHT22;12071;50.850;4.446;2022-12-26T06:15:09;10.90;36.60
23783;DHT22;12071;50.850;4.446;2022-12-26T06:17:37;10.90;37.60
23783;DHT22;12071;50.850;4.446;2022-12-26T06:20:03;10.90;34.70
23783;DHT22;12071;50.850;4.446;2022-12-26T06:22:29;10.90;32.10
23783;DHT22;12071;50.850;4.446;2022-12-26T06:24:55;10.90;30.50
23783;DHT22;12071;50.850;4.446;2022-12-26T06:27:20;10.90;29.70
23783;DHT22;12071;50.850;4.446;2022-12-26T06:29:46;10.80;30.90
23783;DHT22;12071;50.850;4.446;2022-12-26T06:32:11;10.80;31.80
23783;DHT22;12071;50.850;4.446;2022-12-26T06:34:37;10.70;30.50
23783;DHT22;12071;50.850;4.446;2022-12-26T06:37:02;10.70;35.30
23783;DHT22;12071;50.850;4.446;2022-12-26T06:39:28;10.70;37.00
23783;DHT22;12071;50.850;4.446;2022-12-26T06:41:54;10.80;29.90
23783;DHT22;12071;50.850;4.446;2022-12-26T06:44:19;10.70;28.00
23783;DHT22;12071;50.850;4.446;2022-12-26T06:46:45;10.80;26.50
23783;DHT22;12071;50.850;4.446;2022-12-26T06:49:11;10.70;24.90
23783;DHT22;12071;50.850;4.446;2022-12-26T06:51:36;10.80;24.90
23783;DHT22;12071;50.850;4.446;2022-12-26T06:54:02;10.80;21.50
23783;DHT22;12071;50.850;4.446;2022-12-26T06:56:29;10.80;20.50
23783;DHT22;12071;50.850;4.446;2022-12-26T06:58:58;10.90;15.50
23783;DHT22;12071;50.850;4.446;2022-12-26T07:01:26;10.90;13.30
23783;DHT22;12071;50.850;4.446;2022-12-26T07:03:54;10.80;10.50
23783;DHT22;12071;50.850;4.446;2022-12-26T07:06:33;10.90;10.50
23783;DHT22;12071;50.850;4.446;2022-12-26T07:09:01;10.80;9.40
23783;DHT22;12071;50.850;4.446;2022-12-26T07:11:29;10.90;9.20
23783;DHT22;12071;50.850;4.446;2022-12-26T07:13:57;10.90;2.30
23783;DHT22;12071;50.850;4.446;2022-12-26T07:16:23;10.90;2.40
23783;DHT22;12071;50.850;4.446;2022-12-26T07:18:54;10.90;1.00
23783;DHT22;12071;50.850;4.446;2022-12-26T07:21:20;10.90;1.00
23783;DHT22;12071;50.850;4.446;2022-12-26T07:23:46;10.90;1.00
23783;DHT22;12071;50.850;4.446;2022-12-26T07:26:12;10.90;1.00
23783;DHT22;12071;50.850;4.446;2022-12-26T07:28:38;10.90;1.00
23783;DHT22;12071;50.850;4.446;2022-12-26T07:31:04;10.90;1.00
23783;DHT22;12071;50.850;4.446;2022-12-26T07:33:30;10.90;1.00
23783;DHT22;12071;50.850;4.446;2022-12-26T07:36:00;10.90;1.00
23783;DHT22;12071;50.850;4.446;2022-12-26T07:38:26;10.90;1.00
23783;DHT22;12071;50.850;4.446;2022-12-26T07:40:54;10.80;1.00
23783;DHT22;12071;50.850;4.446;2022-12-26T07:43:21;10.80;1.00
23783;DHT22;12071;50.850;4.446;2022-12-26T07:45:46;10.70;1.00
23783;DHT22;12071;50.850;4.446;2022-12-26T07:48:12;10.70;1.00
23783;DHT22;12071;50.850;4.446;2022-12-26T07:50:38;10.70;1.00
23783;DHT22;12071;50.850;4.446;2022-12-26T07:53:03;10.70;1.00
23783;DHT22;12071;50.850;4.446;2022-12-26T07:55:29;10.70;1.00
23783;DHT22;12071;50.850;4.446;2022-12-26T07:57:55;10.60;1.00
23783;DHT22;12071;50.850;4.446;2022-12-26T08:00:21;10.60;1.00
23783;DHT22;12071;50.850;4.446;2022-12-26T08:02:47;10.70;1.00
23783;DHT22;12071;50.850;4.446;2022-12-26T08:05:14;10.70;1.00
23783;DHT22;12071;50.850;4.446;2022-12-26T08:07:40;10.70;1.00
23783;DHT22;12071;50.850;4.446;2022-12-26T08:10:06;10.80;1.00
23783;DHT22;12071;50.850;4.446;2022-12-26T08:12:33;10.80;1.00
23783;DHT22;12071;50.850;4.446;2022-12-26T08:14:58;10.80;1.00
23783;DHT22;12071;50.850;4.446;2022-12-26T08:17:24;10.80;1.00
23783;DHT22;12071;50.850;4.446;2022-12-26T08:19:50;10.80;1.00
23783;DHT22;12071;50.850;4.446;2022-12-26T08:22:15;10.80;1.00
23783;DHT22;12071;50.850;4.446;2022-12-26T08:24:41;10.80;1.00
23783;DHT22;12071;50.850;4.446;2022-12-26T08:27:07;10.80;1.00
23783;DHT22;12071;50.850;4.446;2022-12-26T08:29:32;10.80;1.00
23783;DHT22;12071;50.850;4.446;2022-12-26T08:31:58;10.80;1.00
23783;DHT22;12071;50.850;4.446;2022-12-26T08:34:23;10.80;1.00
23783;DHT22;12071;50.850;4.446;2022-12-26T08:36:50;10.90;1.00
23783;DHT22;12071;50.850;4.446;2022-12-26T08:39:16;10.90;1.00
23783;DHT22;12071;50.850;4.446;2022-12-26T08:41:44;10.80;1.00
23783;DHT22;12071;50.850;4.446;2022-12-26T08:44:10;10.90;1.00
23783;DHT22;12071;50.850;4.446;2022-12-26T08:46:38;10.90;1.00
23783;DHT22;12071;50.850;4.446;2022-12-26T08:49:05;10.90;1.00
23783;DHT22;12071;50.850;4.446;2022-12-26T08:51:31;10.90;1.00
23783;DHT22;12071;50.850;4.446;2022-12-26T08:53:56;10.80;1.00
23783;DHT22;12071;50.850;4.446;2022-12-26T08:56:24;10.80;1.00
23783;DHT22;12071;50.850;4.446;2022-12-26T08:58:50;10.80;1.00
23783;DHT22;12071;50.850;4.446;2022-12-26T09:01:18;10.80;1.00
23783;DHT22;12071;50.850;4.446;2022-12-26T09:03:45;10.80;1.00
23783;DHT22;12071;50.850;4.446;2022-12-26T09:06:12;10.80;1.00
23783;DHT22;12071;50.850;4.446;2022-12-26T09:08:39;10.90;1.00
23783;DHT22;12071;50.850;4.446;2022-12-26T09:11:13;10.90;1.00
23783;DHT22;12071;50.850;4.446;2022-12-26T09:13:40;11.00;1.00
23783;DHT22;12071;50.850;4.446;2022-12-26T09:16:09;11.00;1.00
23783;DHT22;12071;50.850;4.446;2022-12-26T09:18:35;10.90;1.00
23783;DHT22;12071;50.850;4.446;2022-12-26T09:21:03;10.90;1.00
23783;DHT22;12071;50.850;4.446;2022-12-26T09:23:29;10.90;1.00
23783;DHT22;12071;50.850;4.446;2022-12-26T09:26:01;10.90;1.00
23783;DHT22;12071;50.850;4.446;2022-12-26T09:28:27;11.00;1.00
23783;DHT22;12071;50.850;4.446;2022-12-26T09:30:52;11.10;1.00
23783;DHT22;12071;50.850;4.446;2022-12-26T09:33:18;11.10;1.00
23783;DHT22;12071;50.850;4.446;2022-12-26T09:35:43;11.10;1.00
23783;DHT22;12071;50.850;4.446;2022-12-26T09:38:09;11.10;1.00
23783;DHT22;12071;50.850;4.446;2022-12-26T09:40:58;11.20;1.00
23783;DHT22;12071;50.850;4.446;2022-12-26T09:46:18;11.00;1.00
23783;DHT22;12071;50.850;4.446;2022-12-26T09:48:56;11.00;1.00
23783;DHT22;12071;50.850;4.446;2022-12-26T09:51:23;11.10;1.00
23783;DHT22;12071;50.850;4.446;2022-12-26T09:53:49;11.10;1.00
23783;DHT22;12071;50.850;4.446;2022-12-26T09:56:16;11.20;1.00
23783;DHT22;12071;50.850;4.446;2022-12-26T09:58:52;11.30;1.00
23783;DHT22;12071;50.850;4.446;2022-12-26T10:01:33;11.30;1.00
23783;DHT22;12071;50.850;4.446;2022-12-26T10:03:59;11.30;1.00
23783;DHT22;12071;50.850;4.446;2022-12-26T10:06:35;11.50;1.00
23783;DHT22;12071;50.850;4.446;2022-12-26T10:14:40;11.10;1.00
23783;DHT22;12071;50.850;4.446;2022-12-26T10:24:54;10.80;1.00
23783;DHT22;12071;50.850;4.446;2022-12-26T10:27:23;11.00;3.00
23783;DHT22;12071;50.850;4.446;2022-12-26T10:29:54;11.00;1.00
23783;DHT22;12071;50.850;4.446;2022-12-26T10:32:33;11.00;1.00
23783;DHT22;12071;50.850;4.446;2022-12-26T10:38:00;10.70;13.90
23783;DHT22;12071;50.850;4.446;2022-12-26T10:40:37;10.60;25.70
23783;DHT22;12071;50.850;4.446;2022-12-26T10:43:28;10.50;29.50
23783;DHT22;12071;50.850;4.446;2022-12-26T10:48:45;10.70;36.20
23783;DHT22;12071;50.850;4.446;2022-12-26T10:51:12;10.80;30.60
23783;DHT22;12071;50.850;4.446;2022-12-26T10:53:44;10.50;16.70
23783;DHT22;12071;50.850;4.446;2022-12-26T10:56:11;10.40;18.50
23783;DHT22;12071;50.850;4.446;2022-12-26T10:58:37;10.50;17.80
23783;DHT22;12071;50.850;4.446;2022-12-26T11:03:59;10.60;19.70
23783;DHT22;12071;50.850;4.446;2022-12-26T11:06:30;10.80;16.00
23783;DHT22;12071;50.850;4.446;2022-12-26T11:08:57;10.90;6.50
23783;DHT22;12071;50.850;4.446;2022-12-26T11:11:34;10.60;1.00
23783;DHT22;12071;50.850;4.446;2022-12-26T11:14:35;10.70;3.90
23783;DHT22;12071;50.850;4.446;2022-12-26T11:17:10;10.70;3.10
23783;DHT22;12071;50.850;4.446;2022-12-26T11:19:40;10.50;1.00
23783;DHT22;12071;50.850;4.446;2022-12-26T11:22:27;10.60;1.00
23783;DHT22;12071;50.850;4.446;2022-12-26T11:27:41;10.40;1.00
23783;DHT22;12071;50.850;4.446;2022-12-26T11:30:30;10.10;1.00
23783;DHT22;12071;50.850;4.446;2022-12-26T11:35:31;9.80;1.00
23783;DHT22;12071;50.850;4.446;2022-12-26T11:38:04;9.90;1.00
23783;DHT22;12071;50.850;4.446;2022-12-26T11:40:37;9.80;1.00
23783;DHT22;12071;50.850;4.446;2022-12-26T11:43:14;9.70;1.00
23783;DHT22;12071;50.850;4.446;2022-12-26T11:45:43;9.80;1.00
23783;DHT22;12071;50.850;4.446;2022-12-26T11:48:24;9.90;99.90
23783;DHT22;12071;50.850;4.446;2022-12-26T11:50:50;9.80;99.90
23783;DHT22;12071;50.850;4.446;2022-12-26T11:53:18;9.90;99.90
23783;DHT22;12071;50.850;4.446;2022-12-26T11:55:45;9.70;99.90
23783;DHT22;12071;50.850;4.446;2022-12-26T11:58:21;9.50;99.90
23783;DHT22;12071;50.850;4.446;2022-12-26T12:03:32;9.40;1.00
23783;DHT22;12071;50.850;4.446;2022-12-26T12:11:49;9.70;1.00
23783;DHT22;12071;50.850;4.446;2022-12-26T12:27:29;9.60;99.90
23783;DHT22;12071;50.850;4.446;2022-12-26T12:30:17;9.50;99.90
23783;DHT22;12071;50.850;4.446;2022-12-26T12:38:36;9.40;99.90
23783;DHT22;12071;50.850;4.446;2022-12-26T12:48:58;9.20;99.90
23783;DHT22;12071;50.850;4.446;2022-12-26T12:57:18;9.10;99.90
23783;DHT22;12071;50.850;4.446;2022-12-26T13:00:11;9.00;99.90
23783;DHT22;12071;50.850;4.446;2022-12-26T13:10:53;9.10;99.90
23783;DHT22;12071;50.850;4.446;2022-12-26T13:13:32;9.20;99.90
23783;DHT22;12071;50.850;4.446;2022-12-26T13:16:14;9.10;99.90
23783;DHT22;12071;50.850;4.446;2022-12-26T13:19:03;9.20;99.90
23783;DHT22;12071;50.850;4.446;2022-12-26T13:21:34;9.10;99.90
23783;DHT22;12071;50.850;4.446;2022-12-26T13:27:04;9.00;99.90
23783;DHT22;12071;50.850;4.446;2022-12-26T13:29:42;8.90;99.90
23783;DHT22;12071;50.850;4.446;2022-12-26T13:32:31;9.00;99.90
23783;DHT22;12071;50.850;4.446;2022-12-26T13:34:59;9.00;99.90
23783;DHT22;12071;50.850;4.446;2022-12-26T13:40:17;9.00;99.90
23783;DHT22;12071;50.850;4.446;2022-12-26T13:50:53;9.00;99.90
23783;DHT22;12071;50.850;4.446;2022-12-26T13:53:39;8.90;96.40
23783;DHT22;12071;50.850;4.446;2022-12-26T14:02:01;8.50;99.90
23783;DHT22;12071;50.850;4.446;2022-12-26T14:07:49;8.50;99.90
23783;DHT22;12071;50.850;4.446;2022-12-26T14:15:34;8.40;99.90
23783;DHT22;12071;50.850;4.446;2022-12-26T14:18:30;8.30;99.90
23783;DHT22;12071;50.850;4.446;2022-12-26T14:34:53;8.60;51.50
23783;DHT22;12071;50.850;4.446;2022-12-26T14:37:29;8.40;95.00
23783;DHT22;12071;50.850;4.446;2022-12-26T14:40:23;8.30;99.90
23783;DHT22;12071;50.850;4.446;2022-12-26T14:45:38;8.30;99.90
23783;DHT22;12071;50.850;4.446;2022-12-26T14:50:43;8.50;99.90
23783;DHT22;12071;50.850;4.446;2022-12-26T14:56:42;8.10;1.00
23783;DHT22;12071;50.850;4.446;2022-12-26T15:06:55;7.40;99.90
23783;DHT22;12071;50.850;4.446;2022-12-26T15:09:50;7.30;1.00
23783;DHT22;12071;50.850;4.446;2022-12-26T15:34:01;7.00;99.90
23783;DHT22;12071;50.850;4.446;2022-12-26T15:36:35;7.00;1.00
23783;DHT22;12071;50.850;4.446;2022-12-26T15:41:49;7.00;99.90
23783;DHT22;12071;50.850;4.446;2022-12-26T15:44:43;7.20;99.90
23783;DHT22;12071;50.850;4.446;2022-12-26T15:53:01;7.20;99.90
23783;DHT22;12071;50.850;4.446;2022-12-26T16:01:37;6.80;99.90
23783;DHT22;12071;50.850;4.446;2022-12-26T16:04:07;6.80;99.90
23783;DHT22;12071;50.850;4.446;2022-12-26T16:09:42;6.80;1.00
23783;DHT22;12071;50.850;4.446;2022-12-26T16:12:26;6.70;1.00
23783;DHT22;12071;50.850;4.446;2022-12-26T16:17:34;6.70;10.90
23783;DHT22;12071;50.850;4.446;2022-12-26T16:20:16;6.50;16.90
23783;DHT22;12071;50.850;4.446;2022-12-26T16:22:42;6.60;99.90
23783;DHT22;12071;50.850;4.446;2022-12-26T16:25:29;6.70;98.10
23783;DHT22;12071;50.850;4.446;2022-12-26T16:27:56;6.60;99.90
23783;DHT22;12071;50.850;4.446;2022-12-26T16:30:26;6.70;99.90
23783;DHT22;12071;50.850;4.446;2022-12-26T16:32:53;6.70;99.90
23783;DHT22;12071;50.850;4.446;2022-12-26T16:37:52;6.70;99.90
23783;DHT22;12071;50.850;4.446;2022-12-26T16:40:19;6.70;99.90
23783;DHT22;12071;50.850;4.446;2022-12-26T16:42:57;6.80;99.90
23783;DHT22;12071;50.850;4.446;2022-12-26T16:45:24;6.60;99.90
23783;DHT22;12071;50.850;4.446;2022-12-26T16:47:51;6.50;99.90
23783;DHT22;12071;50.850;4.446;2022-12-26T16:50:23;6.40;99.90
23783;DHT22;12071;50.850;4.446;2022-12-26T16:53:00;6.70;99.90
23783;DHT22;12071;50.850;4.446;2022-12-26T16:58:23;6.40;99.90
23783;DHT22;12071;50.850;4.446;2022-12-26T17:01:00;6.40;99.90
23783;DHT22;12071;50.850;4.446;2022-12-26T17:03:35;6.50;99.90
23783;DHT22;12071;50.850;4.446;2022-12-26T17:06:07;6.50;99.90
23783;DHT22;12071;50.850;4.446;2022-12-26T17:08:34;6.70;99.90
23783;DHT22;12071;50.850;4.446;2022-12-26T17:11:04;6.80;99.90
23783;DHT22;12071;50.850;4.446;2022-12-26T17:13:29;6.90;99.90
23783;DHT22;12071;50.850;4.446;2022-12-26T17:15:57;6.90;99.90
23783;DHT22;12071;50.850;4.446;2022-12-26T17:18:38;6.50;99.90
23783;DHT22;12071;50.850;4.446;2022-12-26T17:21:31;6.40;99.90
23783;DHT22;12071;50.850;4.446;2022-12-26T17:24:24;6.50;1.00
23783;DHT22;12071;50.850;4.446;2022-12-26T17:27:09;6.50;1.00
23783;DHT22;12071;50.850;4.446;2022-12-26T17:29:50;6.60;1.00
23783;DHT22;12071;50.850;4.446;2022-12-26T17:32:38;6.60;1.00
23783;DHT22;12071;50.850;4.446;2022-12-26T17:37:30;6.50;1.00
23783;DHT22;12071;50.850;4.446;2022-12-26T17:42:52;6.20;1.00
23783;DHT22;12071;50.850;4.446;2022-12-26T17:45:24;6.20;43.40
23783;DHT22;12071;50.850;4.446;2022-12-26T17:47:54;6.30;37.20
23783;DHT22;12071;50.850;4.446;2022-12-26T17:50:21;6.30;47.30
23783;DHT22;12071;50.850;4.446;2022-12-26T17:52:48;6.20;41.30
23783;DHT22;12071;50.850;4.446;2022-12-26T17:55:21;6.10;77.80
23783;DHT22;12071;50.850;4.446;2022-12-26T17:57:49;6.20;99.90
23783;DHT22;12071;50.850;4.446;2022-12-26T18:00:25;6.30;99.90
23783;DHT22;12071;50.850;4.446;2022-12-26T18:02:51;6.20;99.90
23783;DHT22;12071;50.850;4.446;2022-12-26T18:05:18;6.30;99.90
23783;DHT22;12071;50.850;4.446;2022-12-26T18:07:45;6.40;99.90
23783;DHT22;12071;50.850;4.446;2022-12-26T18:10:17;6.60;41.00
23783;DHT22;12071;50.850;4.446;2022-12-26T18:12:43;6.40;37.70
23783;DHT22;12071;50.850;4.446;2022-12-26T18:15:08;6.40;72.70
23783;DHT22;12071;50.850;4.446;2022-12-26T18:17:34;6.40;87.30
23783;DHT22;12071;50.850;4.446;2022-12-26T18:20:01;6.40;80.10
23783;DHT22;12071;50.850;4.446;2022-12-26T18:22:27;6.10;99.90
23783;DHT22;12071;50.850;4.446;2022-12-26T18:24:52;6.00;99.90
23783;DHT22;12071;50.850;4.446;2022-12-26T18:27:23;6.10;99.90
23783;DHT22;12071;50.850;4.446;2022-12-26T18:29:49;6.00;99.90
23783;DHT22;12071;50.850;4.446;2022-12-26T18:32:24;6.10;99.90
23783;DHT22;12071;50.850;4.446;2022-12-26T18:34:51;6.10;99.90
23783;DHT22;12071;50.850;4.446;2022-12-26T18:37:17;6.10;99.90
23783;DHT22;12071;50.850;4.446;2022-12-26T18:39:43;6.10;99.90
23783;DHT22;12071;50.850;4.446;2022-12-26T18:42:12;6.00;99.90
23783;DHT22;12071;50.850;4.446;2022-12-26T18:44:40;5.90;99.90
23783;DHT22;12071;50.850;4.446;2022-12-26T18:47:12;6.00;99.90
23783;DHT22;12071;50.850;4.446;2022-12-26T18:49:38;6.00;99.90
23783;DHT22;12071;50.850;4.446;2022-12-26T18:52:03;6.00;99.90
23783;DHT22;12071;50.850;4.446;2022-12-26T18:54:29;6.00;99.90
23783;DHT22;12071;50.850;4.446;2022-12-26T18:56:57;6.00;99.90
23783;DHT22;12071;50.850;4.446;2022-12-26T18:59:22;6.00;99.90
23783;DHT22;12071;50.850;4.446;2022-12-26T19:01:48;6.00;99.90
23783;DHT22;12071;50.850;4.446;2022-12-26T19:04:14;6.00;99.90
23783;DHT22;12071;50.850;4.446;2022-12-26T19:06:40;6.10;99.90
23783;DHT22;12071;50.850;4.446;2022-12-26T19:09:07;6.00;99.90
23783;DHT22;12071;50.850;4.446;2022-12-26T19:11:33;6.10;99.90
23783;DHT22;12071;50.850;4.446;2022-12-26T19:13:58;5.90;99.90
23783;DHT22;12071;50.850;4.446;2022-12-26T19:16:25;5.90;99.90
23783;DHT22;12071;50.850;4.446;2022-12-26T19:18:51;6.00;99.90
23783;DHT22;12071;50.850;4.446;2022-12-26T19:21:16;6.00;99.90
23783;DHT22;12071;50.850;4.446;2022-12-26T19:23:45;5.90;99.90
23783;DHT22;12071;50.850;4.446;2022-12-26T19:26:14;5.90;99.90
23783;DHT22;12071;50.850;4.446;2022-12-26T19:28:40;5.80;99.90
23783;DHT22;12071;50.850;4.446;2022-12-26T19:31:12;5.80;99.90
23783;DHT22;12071;50.850;4.446;2022-12-26T19:33:38;5.90;99.90
23783;DHT22;12071;50.850;4.446;2022-12-26T19:36:07;5.90;99.90
23783;DHT22;12071;50.850;4.446;2022-12-26T19:38:36;5.90;99.90
23783;DHT22;12071;50.850;4.446;2022-12-26T19:41:11;6.00;99.90
23783;DHT22;12071;50.850;4.446;2022-12-26T19:43:38;5.90;99.90
23783;DHT22;12071;50.850;4.446;2022-12-26T19:46:08;6.00;99.90
23783;DHT22;12071;50.850;4.446;2022-12-26T19:48:35;5.90;99.90
23783;DHT22;12071;50.850;4.446;2022-12-26T19:51:06;5.90;99.90
23783;DHT22;12071;50.850;4.446;2022-12-26T19:53:33;5.80;99.90
23783;DHT22;12071;50.850;4.446;2022-12-26T19:55:58;5.90;99.90
23783;DHT22;12071;50.850;4.446;2022-12-26T19:58:28;6.00;99.90